Time;durP1;ratioP1;P1;durP2;ratioP2;P2;SDS_P1;SDS_P2;PMS_P1;PMS_P2;Temp;Humidity;BMP_temperature;BMP_pressure;BME280_temperature;BME280_humidity;BME280_pressure;Samples;Min_cycle;Max_cycle;Signal;HPM_P1;HPM_P2
2022/10/06 00:00:27;;;;;;;6.30;2.20;;;;;;;;;;5049211;28;20049;-80
2022/10/06 00:02:53;;;;;;;4.80;2.03;;;;;;;;;;5016246;28;20057;-78
2022/10/06 00:05:20;;;;;;;2.97;1.80;;;;;;;;;;5015095;28;20498;-78
2022/10/06 00:07:46;;;;;;;8.43;1.90;;;;;;;;;;5033934;28;20087;-79
2022/10/06 00:10:12;;;;;;;6.85;2.13;;;;;;;;;;5018815;28;20553;-79
2022/10/06 00:12:40;;;;;;;4.20;1.90;;;;;;;;;;5035917;28;20049;-80
2022/10/06 00:15:08;;;;;;;5.50;1.98;;;;;;;;;;5018951;28;20050;-80
2022/10/06 00:17:34;;;;;;;4.85;2.10;;;;;;;;;;5014750;28;20071;-81
2022/10/06 00:20:00;;;;;;;4.20;2.33;;;;;;;;;;5031085;28;20045;-79
2022/10/06 00:22:34;;;;;;;5.50;2.05;;;;;;;;;;5030626;28;20053;-79
2022/10/06 00:25:00;;;;;;;3.25;1.95;;;;;;;;;;5031482;28;20944;-78
2022/10/06 00:27:34;;;;;;;6.97;1.90;;;;;;;;;;5031121;28;20084;-79
2022/10/06 00:30:00;;;;;;;3.28;1.80;;;;;;;;;;5031555;28;20120;-79
2022/10/06 00:32:27;;;;;;;4.32;1.77;;;;;;;;;;5031372;28;20421;-80
2022/10/06 00:34:53;;;;;;;13.70;2.05;;;;;;;;;;5032369;28;20049;-80
2022/10/06 00:37:19;;;;;;;3.58;1.90;;;;;;;;;;5030980;28;20473;-78
2022/10/06 00:39:46;;;;;;;4.45;2.03;;;;;;;;;;5031159;28;20064;-79
2022/10/06 00:42:26;;;;;;;4.05;2.05;;;;;;;;;;5031421;28;20045;-79
2022/10/06 00:44:56;;;;;;;4.05;2.20;;;;;;;;;;5032751;28;20060;-79
2022/10/06 00:47:23;;;;;;;4.95;2.10;;;;;;;;;;5031050;28;20041;-81
2022/10/06 00:49:50;;;;;;;5.88;2.00;;;;;;;;;;5030801;28;20056;-78
2022/10/06 00:52:18;;;;;;;5.45;1.90;;;;;;;;;;5013215;28;20084;-79
2022/10/06 00:54:44;;;;;;;3.33;1.70;;;;;;;;;;5031238;28;20057;-79
2022/10/06 00:57:11;;;;;;;5.95;2.25;;;;;;;;;;5029292;28;20053;-78
2022/10/06 00:59:38;;;;;;;4.45;1.90;;;;;;;;;;5031210;28;20056;-79
2022/10/06 01:02:20;;;;;;;5.90;2.40;;;;;;;;;;5031533;28;20457;-82
2022/10/06 01:04:49;;;;;;;4.05;2.08;;;;;;;;;;5028441;28;20045;-79
2022/10/06 01:07:16;;;;;;;6.15;2.17;;;;;;;;;;5031291;28;20045;-81
2022/10/06 01:09:42;;;;;;;5.65;2.55;;;;;;;;;;5033486;28;20072;-79
2022/10/06 01:12:12;;;;;;;8.30;2.20;;;;;;;;;;5032048;28;20129;-79
2022/10/06 01:14:39;;;;;;;8.20;2.67;;;;;;;;;;5036473;28;20049;-80
2022/10/06 01:17:18;;;;;;;6.40;2.22;;;;;;;;;;5012493;28;20049;-81
2022/10/06 01:19:58;;;;;;;3.47;2.08;;;;;;;;;;5030293;28;20053;-82
2022/10/06 01:22:29;;;;;;;8.73;2.10;;;;;;;;;;5030236;28;20500;-79
2022/10/06 01:24:56;;;;;;;7.55;2.15;;;;;;;;;;5030654;28;20049;-80
2022/10/06 01:27:24;;;;;;;5.82;2.25;;;;;;;;;;5031497;28;20045;-81
2022/10/06 01:29:52;;;;;;;7.72;2.05;;;;;;;;;;5032394;28;20045;-81
2022/10/06 01:32:19;;;;;;;5.28;2.45;;;;;;;;;;5038981;28;20034;-80
2022/10/06 01:34:46;;;;;;;5.60;2.10;;;;;;;;;;5053335;28;20051;-81
2022/10/06 01:37:12;;;;;;;5.15;2.20;;;;;;;;;;5033682;28;20064;-79
2022/10/06 01:39:38;;;;;;;8.20;2.25;;;;;;;;;;5052166;28;20063;-79
2022/10/06 01:42:05;;;;;;;6.43;2.10;;;;;;;;;;5049774;28;20125;-78
2022/10/06 01:44:31;;;;;;;4.25;2.30;;;;;;;;;;5050869;28;20133;-80
2022/10/06 01:46:58;;;;;;;5.63;2.30;;;;;;;;;;5052027;28;20045;-79
2022/10/06 01:49:24;;;;;;;5.07;2.10;;;;;;;;;;5045985;28;20068;-80
2022/10/06 01:51:51;;;;;;;8.25;2.58;;;;;;;;;;5025655;28;20045;-80
2022/10/06 01:54:18;;;;;;;4.93;2.03;;;;;;;;;;5043395;28;20089;-81
2022/10/06 01:56:44;;;;;;;6.63;2.15;;;;;;;;;;5049029;28;20053;-78
2022/10/06 01:59:10;;;;;;;4.82;2.30;;;;;;;;;;5038778;28;20555;-81
2022/10/06 02:01:39;;;;;;;3.95;2.30;;;;;;;;;;5017501;28;20049;-80
2022/10/06 02:04:06;;;;;;;7.72;2.10;;;;;;;;;;5034505;28;20049;-80
2022/10/06 02:06:32;;;;;;;3.75;2.30;;;;;;;;;;5034047;28;20482;-78
2022/10/06 02:08:59;;;;;;;3.92;2.33;;;;;;;;;;5033843;28;20049;-80
2022/10/06 02:11:26;;;;;;;7.78;2.20;;;;;;;;;;5034631;28;20050;-80
2022/10/06 02:13:52;;;;;;;5.00;2.08;;;;;;;;;;5016016;28;20056;-80
2022/10/06 02:16:19;;;;;;;5.00;2.15;;;;;;;;;;5017334;28;20050;-81
2022/10/06 02:18:46;;;;;;;5.80;2.20;;;;;;;;;;5013927;28;20421;-80
2022/10/06 02:21:17;;;;;;;8.38;2.60;;;;;;;;;;5034052;28;20053;-80
2022/10/06 02:23:43;;;;;;;6.47;2.03;;;;;;;;;;5033672;28;20049;-81
2022/10/06 02:26:11;;;;;;;3.30;1.80;;;;;;;;;;5034227;28;20056;-81
2022/10/06 02:28:38;;;;;;;10.60;2.28;;;;;;;;;;5033055;28;20512;-78
2022/10/06 02:31:06;;;;;;;5.90;2.00;;;;;;;;;;5033800;28;20540;-80
2022/10/06 02:33:33;;;;;;;5.63;2.17;;;;;;;;;;5032928;28;20049;-81
2022/10/06 02:35:59;;;;;;;4.40;1.83;;;;;;;;;;5033525;28;20077;-80
2022/10/06 02:38:26;;;;;;;7.03;2.20;;;;;;;;;;5033121;28;20482;-81
2022/10/06 02:40:53;;;;;;;5.68;2.10;;;;;;;;;;5015812;28;20045;-79
2022/10/06 02:43:19;;;;;;;6.93;2.00;;;;;;;;;;5033282;28;20052;-80
2022/10/06 02:45:56;;;;;;;4.03;1.95;;;;;;;;;;5034491;28;20065;-80
2022/10/06 02:48:23;;;;;;;4.57;1.88;;;;;;;;;;5032661;28;20045;-78
2022/10/06 02:51:00;;;;;;;6.57;2.08;;;;;;;;;;5034440;28;20096;-80
2022/10/06 02:53:26;;;;;;;4.05;1.83;;;;;;;;;;5015940;28;20056;-81
2022/10/06 02:56:19;;;;;;;3.00;1.70;;;;;;;;;;5033434;28;20049;-81
2022/10/06 02:58:46;;;;;;;4.43;1.90;;;;;;;;;;5030841;28;20079;-81
2022/10/06 03:01:14;;;;;;;4.78;2.20;;;;;;;;;;5032711;28;20056;-83
2022/10/06 03:03:41;;;;;;;4.63;2.10;;;;;;;;;;5031909;28;20052;-80
2022/10/06 03:06:24;;;;;;;7.72;2.65;;;;;;;;;;5032106;28;20049;-82
2022/10/06 03:08:51;;;;;;;6.65;2.22;;;;;;;;;;5031133;28;20045;-80
2022/10/06 03:11:21;;;;;;;8.23;2.33;;;;;;;;;;5032901;28;20045;-80
2022/10/06 03:13:48;;;;;;;7.65;2.33;;;;;;;;;;5013588;28;20045;-80
2022/10/06 03:16:37;;;;;;;6.55;2.40;;;;;;;;;;5032681;28;20446;-79
2022/10/06 03:19:04;;;;;;;6.25;2.38;;;;;;;;;;5031076;28;20151;-80
2022/10/06 03:21:32;;;;;;;6.45;2.05;;;;;;;;;;5032199;28;20137;-80
2022/10/06 03:23:59;;;;;;;7.30;2.20;;;;;;;;;;5032782;28;20052;-79
2022/10/06 03:26:30;;;;;;;6.03;2.20;;;;;;;;;;5014999;28;20053;-80
2022/10/06 03:28:56;;;;;;;5.20;2.03;;;;;;;;;;5033592;28;20072;-80
2022/10/06 03:31:24;;;;;;;7.25;2.40;;;;;;;;;;5025298;28;20046;-80
2022/10/06 03:33:51;;;;;;;3.03;1.90;;;;;;;;;;5011705;28;20049;-81
2022/10/06 03:36:19;;;;;;;6.82;2.30;;;;;;;;;;5011153;28;20057;-81
2022/10/06 03:38:45;;;;;;;3.28;2.13;;;;;;;;;;4994466;28;20049;-81
2022/10/06 03:41:12;;;;;;;9.25;2.65;;;;;;;;;;5011303;28;20058;-81
2022/10/06 03:43:39;;;;;;;5.68;2.30;;;;;;;;;;5010176;28;20045;-82
2022/10/06 03:46:05;;;;;;;8.10;2.40;;;;;;;;;;4992798;28;20060;-80
2022/10/06 03:48:33;;;;;;;5.30;2.30;;;;;;;;;;5010056;28;20057;-80
2022/10/06 03:51:00;;;;;;;5.40;2.10;;;;;;;;;;5010073;28;20041;-81
2022/10/06 03:53:28;;;;;;;9.07;2.25;;;;;;;;;;4992604;28;20050;-81
2022/10/06 03:55:59;;;;;;;4.97;2.22;;;;;;;;;;5009826;28;20088;-80
2022/10/06 03:58:29;;;;;;;4.57;2.60;;;;;;;;;;5024430;28;20053;-79
2022/10/06 04:01:03;;;;;;;7.13;2.45;;;;;;;;;;5048678;28;20053;-79
2022/10/06 04:03:33;;;;;;;6.05;2.30;;;;;;;;;;5049389;28;20071;-79
2022/10/06 04:06:00;;;;;;;5.45;2.30;;;;;;;;;;5048665;28;20055;-79
2022/10/06 04:08:28;;;;;;;5.10;2.20;;;;;;;;;;5048029;28;20743;-80
2022/10/06 04:10:55;;;;;;;5.10;2.35;;;;;;;;;;5048226;28;20059;-81
2022/10/06 04:13:21;;;;;;;9.43;2.30;;;;;;;;;;5048621;28;20041;-80
2022/10/06 04:15:48;;;;;;;4.75;2.13;;;;;;;;;;5048957;28;20049;-79
2022/10/06 04:18:14;;;;;;;4.22;2.30;;;;;;;;;;5048102;28;20045;-80
2022/10/06 04:20:41;;;;;;;5.85;2.40;;;;;;;;;;5030902;28;20055;-83
2022/10/06 04:23:08;;;;;;;5.30;1.90;;;;;;;;;;5048939;28;20060;-82
2022/10/06 04:25:34;;;;;;;7.57;2.10;;;;;;;;;;5027318;28;20045;-79
2022/10/06 04:28:00;;;;;;;9.32;2.45;;;;;;;;;;5028711;28;20042;-81
2022/10/06 04:30:27;;;;;;;7.18;2.60;;;;;;;;;;5030992;28;20045;-81
2022/10/06 04:32:54;;;;;;;4.25;2.10;;;;;;;;;;4993605;28;1069434;-80
2022/10/06 04:35:20;;;;;;;6.40;2.00;;;;;;;;;;5030659;28;20318;-81
2022/10/06 04:37:46;;;;;;;10.25;2.55;;;;;;;;;;5030176;28;20521;-81
2022/10/06 04:40:14;;;;;;;5.95;2.50;;;;;;;;;;5035506;28;20096;-78
2022/10/06 04:42:41;;;;;;;8.40;2.70;;;;;;;;;;5043696;28;20050;-82
2022/10/06 04:45:09;;;;;;;4.15;2.35;;;;;;;;;;5044598;28;20052;-80
2022/10/06 04:47:35;;;;;;;6.60;2.50;;;;;;;;;;5044555;28;20080;-79
2022/10/06 04:50:02;;;;;;;5.47;2.20;;;;;;;;;;5029911;28;20431;-81
2022/10/06 04:52:28;;;;;;;4.53;2.28;;;;;;;;;;5019569;28;20041;-82
2022/10/06 04:54:54;;;;;;;8.18;2.28;;;;;;;;;;5033411;28;20237;-82
2022/10/06 04:57:21;;;;;;;3.85;2.40;;;;;;;;;;5038183;28;20528;-82
2022/10/06 05:02:39;;;;;;;2.78;1.92;;;;;;;;;;5018512;28;20558;-81
2022/10/06 05:05:06;;;;;;;5.78;2.30;;;;;;;;;;5018631;28;20057;-80
2022/10/06 05:07:33;;;;;;;9.07;2.70;;;;;;;;;;5030590;28;20050;-80
2022/10/06 05:09:59;;;;;;;4.95;2.17;;;;;;;;;;5030798;28;20049;-79
2022/10/06 05:12:29;;;;;;;9.55;2.70;;;;;;;;;;5029342;28;20520;-81
2022/10/06 05:14:56;;;;;;;8.95;2.65;;;;;;;;;;5030147;28;20053;-78
2022/10/06 05:17:22;;;;;;;8.30;2.80;;;;;;;;;;5029948;28;20065;-80
2022/10/06 05:19:52;;;;;;;8.30;2.50;;;;;;;;;;5012021;28;20134;-82
2022/10/06 05:22:19;;;;;;;7.80;2.67;;;;;;;;;;5028717;28;20072;-79
2022/10/06 05:24:45;;;;;;;5.75;2.60;;;;;;;;;;5030227;28;20056;-81
2022/10/06 05:27:11;;;;;;;4.78;2.60;;;;;;;;;;5029240;28;20069;-80
2022/10/06 05:29:38;;;;;;;6.13;3.10;;;;;;;;;;5030170;28;20050;-82
2022/10/06 05:32:04;;;;;;;6.90;2.38;;;;;;;;;;5030057;28;20050;-81
2022/10/06 05:34:31;;;;;;;8.75;3.03;;;;;;;;;;5029293;28;20054;-80
2022/10/06 05:36:57;;;;;;;8.90;2.63;;;;;;;;;;5028952;28;20046;-80
2022/10/06 05:39:23;;;;;;;9.63;2.88;;;;;;;;;;5029646;28;20050;-81
2022/10/06 05:41:50;;;;;;;5.72;2.40;;;;;;;;;;5011563;28;20049;-80
2022/10/06 05:44:16;;;;;;;5.93;2.60;;;;;;;;;;5030043;28;20140;-80
2022/10/06 05:46:43;;;;;;;9.75;2.85;;;;;;;;;;5029336;28;20061;-80
2022/10/06 05:49:11;;;;;;;8.05;2.75;;;;;;;;;;5029493;28;20049;-80
2022/10/06 05:51:40;;;;;;;7.00;2.80;;;;;;;;;;5030006;28;20052;-81
2022/10/06 05:54:07;;;;;;;6.78;3.08;;;;;;;;;;5029573;28;20042;-81
2022/10/06 05:56:34;;;;;;;6.72;2.70;;;;;;;;;;5029061;28;20059;-81
2022/10/06 05:59:01;;;;;;;4.55;2.60;;;;;;;;;;5024129;28;20057;-80
2022/10/06 06:01:35;;;;;;;9.18;2.85;;;;;;;;;;5049374;28;20064;-80
2022/10/06 06:04:03;;;;;;;5.18;2.50;;;;;;;;;;5048855;28;20928;-80
2022/10/06 06:06:29;;;;;;;4.18;2.58;;;;;;;;;;5049738;28;20175;-81
2022/10/06 06:08:57;;;;;;;6.32;2.83;;;;;;;;;;5049390;28;20049;-81
2022/10/06 06:11:26;;;;;;;8.60;3.00;;;;;;;;;;5049295;28;20060;-80
2022/10/06 06:14:03;;;;;;;6.78;3.10;;;;;;;;;;5030922;28;20049;-81
2022/10/06 06:16:30;;;;;;;7.13;2.35;;;;;;;;;;5050186;28;20049;-78
2022/10/06 06:18:56;;;;;;;4.13;1.10;;;;;;;;;;5048435;28;20120;-80
2022/10/06 06:21:23;;;;;;;2.55;0.88;;;;;;;;;;5049778;28;20056;-80
2022/10/06 06:23:50;;;;;;;3.95;0.60;;;;;;;;;;5048996;28;20049;-79
2022/10/06 06:26:18;;;;;;;3.55;0.70;;;;;;;;;;5049940;28;20045;-80
2022/10/06 06:28:46;;;;;;;5.90;0.75;;;;;;;;;;5048794;28;20055;-80
2022/10/06 06:31:19;;;;;;;2.13;0.70;;;;;;;;;;5050058;28;20057;-81
2022/10/06 06:33:46;;;;;;;6.38;0.65;;;;;;;;;;5033669;28;20099;-81
2022/10/06 06:36:19;;;;;;;1.25;0.60;;;;;;;;;;5052436;28;20067;-81
2022/10/06 06:38:46;;;;;;;9.27;1.10;;;;;;;;;;5051880;28;20069;-80
2022/10/06 06:41:16;;;;;;;3.42;0.65;;;;;;;;;;5052400;28;20052;-80
2022/10/06 06:43:43;;;;;;;1.63;0.60;;;;;;;;;;5052454;28;20055;-79
2022/10/06 06:46:10;;;;;;;6.45;0.60;;;;;;;;;;5052841;28;20041;-80
2022/10/06 06:48:36;;;;;;;3.08;0.70;;;;;;;;;;5051679;28;20052;-81
2022/10/06 06:51:03;;;;;;;3.55;0.82;;;;;;;;;;5054553;28;20063;-82
2022/10/06 06:53:30;;;;;;;3.65;0.80;;;;;;;;;;5057980;28;20071;-81
2022/10/06 06:55:56;;;;;;;4.82;0.75;;;;;;;;;;5062738;28;20080;-81
2022/10/06 06:58:23;;;;;;;3.65;0.65;;;;;;;;;;5051380;28;20051;-81
2022/10/06 07:00:49;;;;;;;2.58;0.70;;;;;;;;;;5024836;28;20049;-82
2022/10/06 07:03:20;;;;;;;7.07;0.85;;;;;;;;;;5039623;28;20057;-80
2022/10/06 07:06:08;;;;;;;4.05;0.93;;;;;;;;;;5036966;28;20189;-80
2022/10/06 07:08:36;;;;;;;3.42;0.90;;;;;;;;;;5037221;28;20053;-82
2022/10/06 07:11:21;;;;;;;2.80;0.90;;;;;;;;;;5038790;28;20051;-81
2022/10/06 07:13:52;;;;;;;3.42;1.00;;;;;;;;;;5039079;28;20052;-81
2022/10/06 07:27:25;;;;;;;3.10;1.60;;;;;;;;;;5039766;28;20088;-80
2022/10/06 07:29:53;;;;;;;2.53;1.40;;;;;;;;;;5041913;28;20422;-80
2022/10/06 07:32:21;;;;;;;2.72;1.13;;;;;;;;;;5050047;28;20099;-81
2022/10/06 07:34:48;;;;;;;5.97;1.55;;;;;;;;;;5049689;28;20052;-81
2022/10/06 07:37:15;;;;;;;5.80;1.40;;;;;;;;;;5033618;28;20091;-80
2022/10/06 07:39:41;;;;;;;7.65;1.17;;;;;;;;;;5044481;28;20476;-80
2022/10/06 07:42:14;;;;;;;3.70;1.40;;;;;;;;;;5033145;28;20083;-81
2022/10/06 07:44:41;;;;;;;2.78;1.15;;;;;;;;;;5032374;28;20049;-79
2022/10/06 07:47:07;;;;;;;3.10;0.90;;;;;;;;;;5031918;28;20056;-81
2022/10/06 07:49:34;;;;;;;6.40;1.20;;;;;;;;;;5031651;28;20052;-80
2022/10/06 07:52:01;;;;;;;2.90;0.93;;;;;;;;;;5014606;28;20045;-81
2022/10/06 07:54:27;;;;;;;7.45;0.90;;;;;;;;;;5032348;28;20299;-80
2022/10/06 07:56:54;;;;;;;6.10;0.80;;;;;;;;;;5038014;28;20277;-79
2022/10/06 07:59:21;;;;;;;2.78;0.85;;;;;;;;;;5036527;28;20117;-82
2022/10/06 08:01:49;;;;;;;4.28;1.05;;;;;;;;;;5053046;28;20045;-82
2022/10/06 08:04:16;;;;;;;8.10;1.10;;;;;;;;;;5051420;28;20052;-82
2022/10/06 08:06:43;;;;;;;4.38;0.70;;;;;;;;;;5051337;28;20059;-80
2022/10/06 08:09:09;;;;;;;8.32;0.70;;;;;;;;;;5051669;28;20052;-82
2022/10/06 08:11:36;;;;;;;3.83;0.70;;;;;;;;;;5050980;28;20484;-81
2022/10/06 08:14:02;;;;;;;5.45;1.42;;;;;;;;;;5053492;28;20067;-80
2022/10/06 08:16:28;;;;;;;5.05;0.80;;;;;;;;;;5052800;28;20052;-81
2022/10/06 08:18:57;;;;;;;4.30;1.00;;;;;;;;;;5071132;28;20061;-82
2022/10/06 08:21:23;;;;;;;4.05;1.20;;;;;;;;;;5065635;28;20491;-81
2022/10/06 08:23:50;;;;;;;3.50;0.80;;;;;;;;;;5054055;28;20079;-81
2022/10/06 08:26:17;;;;;;;3.85;0.90;;;;;;;;;;5057629;28;20059;-82
2022/10/06 08:28:45;;;;;;;3.80;0.93;;;;;;;;;;5034550;28;20390;-79
2022/10/06 08:31:14;;;;;;;5.05;1.00;;;;;;;;;;5050026;28;20045;-79
2022/10/06 08:33:41;;;;;;;6.18;1.05;;;;;;;;;;5049476;28;20076;-79
2022/10/06 08:36:09;;;;;;;4.57;1.15;;;;;;;;;;5049672;28;20045;-81
2022/10/06 08:38:36;;;;;;;5.10;0.70;;;;;;;;;;5049082;28;20048;-81
2022/10/06 08:41:15;;;;;;;6.13;1.00;;;;;;;;;;5050638;28;20053;-81
2022/10/06 08:43:42;;;;;;;5.18;0.75;;;;;;;;;;5032489;28;20075;-82
2022/10/06 08:46:13;;;;;;;3.20;0.90;;;;;;;;;;5032710;28;20059;-80
2022/10/06 08:48:39;;;;;;;8.27;0.80;;;;;;;;;;5049387;28;20052;-80
2022/10/06 08:51:17;;;;;;;5.35;0.70;;;;;;;;;;5050045;28;20040;-80
2022/10/06 08:53:45;;;;;;;8.27;0.90;;;;;;;;;;5050031;28;20049;-80
2022/10/06 08:56:26;;;;;;;7.07;0.90;;;;;;;;;;5032611;28;20049;-79
2022/10/06 08:59:03;;;;;;;4.95;0.80;;;;;;;;;;5037578;28;20501;-79
2022/10/06 09:01:40;;;;;;;4.80;0.85;;;;;;;;;;5030811;28;20049;-82
2022/10/06 09:04:09;;;;;;;8.10;1.15;;;;;;;;;;5030041;28;20064;-81
2022/10/06 09:06:49;;;;;;;8.50;0.82;;;;;;;;;;5029687;28;20499;-82
2022/10/06 09:09:35;;;;;;;4.68;1.10;;;;;;;;;;5030903;28;20489;-82
2022/10/06 09:12:01;;;;;;;5.22;0.93;;;;;;;;;;5031711;28;20045;-81
2022/10/06 09:14:36;;;;;;;4.22;0.73;;;;;;;;;;5031607;28;20642;-79
2022/10/06 09:17:06;;;;;;;3.75;0.70;;;;;;;;;;5030291;28;20300;-80
2022/10/06 09:19:39;;;;;;;6.28;0.85;;;;;;;;;;5029779;28;20060;-79
2022/10/06 09:22:10;;;;;;;6.40;1.02;;;;;;;;;;5030869;28;20465;-81
2022/10/06 09:24:40;;;;;;;4.88;1.20;;;;;;;;;;5030628;28;20049;-80
2022/10/06 09:27:25;;;;;;;5.60;0.70;;;;;;;;;;5013049;28;20099;-82
2022/10/06 09:29:51;;;;;;;5.00;0.85;;;;;;;;;;5032205;28;20565;-82
2022/10/06 09:32:20;;;;;;;4.20;0.88;;;;;;;;;;5030767;28;20049;-82
2022/10/06 09:34:50;;;;;;;2.72;0.57;;;;;;;;;;5034471;28;20049;-80
2022/10/06 09:37:17;;;;;;;8.70;1.10;;;;;;;;;;5029696;28;20054;-81
2022/10/06 09:39:47;;;;;;;4.00;0.80;;;;;;;;;;5029964;28;20053;-81
2022/10/06 09:42:16;;;;;;;5.28;1.00;;;;;;;;;;5029394;28;20536;-81
2022/10/06 09:44:49;;;;;;;5.88;1.30;;;;;;;;;;5029676;28;20584;-81
2022/10/06 09:47:23;;;;;;;8.05;1.10;;;;;;;;;;5029104;28;20490;-80
2022/10/06 09:50:08;;;;;;;7.13;1.15;;;;;;;;;;5029729;28;20136;-79
2022/10/06 09:52:35;;;;;;;8.98;1.27;;;;;;;;;;5012420;28;20046;-81
2022/10/06 09:55:10;;;;;;;3.95;0.80;;;;;;;;;;5030473;28;20068;-80
2022/10/06 09:57:37;;;;;;;6.78;1.13;;;;;;;;;;5029208;28;20136;-81
2022/10/06 10:00:04;;;;;;;3.40;1.00;;;;;;;;;;5050824;28;20076;-81
2022/10/06 10:02:30;;;;;;;4.28;1.00;;;;;;;;;;5049722;28;20520;-81
2022/10/06 10:04:57;;;;;;;8.80;0.90;;;;;;;;;;5040508;28;20065;-79
2022/10/06 10:07:27;;;;;;;7.45;1.10;;;;;;;;;;5062167;28;20049;-81
2022/10/06 10:10:13;;;;;;;10.70;0.90;;;;;;;;;;5048641;28;20049;-80
2022/10/06 10:12:48;;;;;;;4.82;0.85;;;;;;;;;;5065236;28;20075;-79
2022/10/06 10:15:17;;;;;;;7.82;1.50;;;;;;;;;;5065213;28;20059;-79
2022/10/06 10:17:47;;;;;;;4.05;1.10;;;;;;;;;;5066133;28;20044;-80
2022/10/06 10:20:22;;;;;;;6.53;1.10;;;;;;;;;;5063152;28;20067;-81
2022/10/06 10:22:49;;;;;;;8.73;1.23;;;;;;;;;;5054799;28;20124;-82
2022/10/06 10:25:18;;;;;;;3.90;1.15;;;;;;;;;;5055460;28;20052;-81
2022/10/06 10:27:57;;;;;;;7.15;1.20;;;;;;;;;;5053519;28;20041;-81
2022/10/06 10:30:25;;;;;;;8.32;1.33;;;;;;;;;;5054393;28;20182;-82
2022/10/06 10:32:51;;;;;;;10.02;1.60;;;;;;;;;;5053746;28;20045;-81
2022/10/06 10:35:24;;;;;;;6.18;1.10;;;;;;;;;;5052997;28;20133;-81
2022/10/06 10:38:06;;;;;;;6.22;1.50;;;;;;;;;;5053436;28;20049;-81
2022/10/06 10:40:50;;;;;;;7.40;1.50;;;;;;;;;;5053885;28;20452;-81
2022/10/06 10:43:28;;;;;;;6.03;1.50;;;;;;;;;;5054449;28;20059;-81
2022/10/06 10:45:58;;;;;;;9.35;1.60;;;;;;;;;;5053077;28;20049;-81
2022/10/06 10:48:29;;;;;;;6.85;1.45;;;;;;;;;;5052230;28;20041;-82
2022/10/06 10:51:14;;;;;;;8.73;1.20;;;;;;;;;;5053762;28;20128;-78
2022/10/06 10:53:41;;;;;;;;;;;;;;;;;;5038486;28;20044;-80
2022/10/06 10:56:08;;;;;;;6.28;1.48;;;;;;;;;;5055749;28;19978;-80
2022/10/06 10:58:36;;;;;;;7.70;1.55;;;;;;;;;;5046654;28;20604;-79
2022/10/06 11:01:15;;;;;;;8.52;1.17;;;;;;;;;;5036447;28;20610;-79
2022/10/06 11:03:42;;;;;;;8.18;1.77;;;;;;;;;;5016547;28;20057;-80
2022/10/06 11:06:38;;;;;;;6.03;1.20;;;;;;;;;;5036109;28;20049;-80
2022/10/06 11:09:12;;;;;;;5.30;1.20;;;;;;;;;;4948630;28;20134;-79
2022/10/06 11:11:45;;;;;;;10.77;1.55;;;;;;;;;;5018913;28;20056;-80
2022/10/06 11:14:41;;;;;;;8.85;1.65;;;;;;;;;;5036445;28;20142;-80
2022/10/06 11:17:11;;;;;;;10.07;1.70;;;;;;;;;;5035918;28;20063;-80
2022/10/06 11:19:56;;;;;;;6.53;1.20;;;;;;;;;;5036286;28;20064;-80
2022/10/06 11:22:22;;;;;;;6.45;1.40;;;;;;;;;;5035658;28;20053;-81
2022/10/06 11:24:58;;;;;;;6.93;1.30;;;;;;;;;;5036940;28;20049;-80
2022/10/06 11:27:43;;;;;;;5.38;1.10;;;;;;;;;;5039134;28;20046;-79
2022/10/06 11:30:10;;;;;;;7.18;1.55;;;;;;;;;;5038989;28;20049;-78
2022/10/06 11:32:41;;;;;;;6.45;1.30;;;;;;;;;;5041140;28;20515;-79
2022/10/06 11:35:34;;;;;;;7.60;1.63;;;;;;;;;;5047201;28;20050;-78
2022/10/06 11:38:00;;;;;;;12.80;1.83;;;;;;;;;;5047714;28;20059;-78
2022/10/06 11:40:30;;;;;;;10.35;1.75;;;;;;;;;;5047284;28;20140;-78
2022/10/06 11:43:09;;;;;;;5.00;1.35;;;;;;;;;;5043438;28;20086;-78
2022/10/06 11:45:44;;;;;;;6.15;1.20;;;;;;;;;;5044742;28;20045;-78
2022/10/06 11:48:23;;;;;;;5.90;1.33;;;;;;;;;;5025955;28;20482;-79
2022/10/06 11:50:54;;;;;;;7.80;1.20;;;;;;;;;;5043299;28;20045;-77
2022/10/06 11:53:41;;;;;;;3.75;0.90;;;;;;;;;;5043559;28;20049;-78
2022/10/06 11:56:17;;;;;;;7.45;1.20;;;;;;;;;;5046514;28;20053;-78
2022/10/06 11:58:49;;;;;;;13.05;1.27;;;;;;;;;;5054866;28;20049;-78
2022/10/06 12:01:24;;;;;;;11.52;1.48;;;;;;;;;;5065118;28;20055;-78
2022/10/06 12:04:02;;;;;;;10.23;1.33;;;;;;;;;;5060071;28;20053;-79
2022/10/06 12:06:41;;;;;;;4.72;0.90;;;;;;;;;;5036400;28;20091;-77
2022/10/06 12:09:27;;;;;;;5.18;1.25;;;;;;;;;;5055744;28;20079;-78
2022/10/06 12:11:54;;;;;;;3.78;1.02;;;;;;;;;;5055959;28;20049;-80
2022/10/06 12:14:39;;;;;;;10.00;1.30;;;;;;;;;;5037428;28;20049;-78
2022/10/06 12:17:32;;;;;;;8.25;1.15;;;;;;;;;;5020629;28;20457;-79
2022/10/06 12:20:08;;;;;;;10.68;1.30;;;;;;;;;;5034805;28;20064;-79
2022/10/06 12:22:39;;;;;;;5.03;1.05;;;;;;;;;;5036153;28;20049;-80
2022/10/06 12:25:09;;;;;;;6.97;1.08;;;;;;;;;;5019469;28;20053;-78
2022/10/06 12:27:41;;;;;;;5.25;0.95;;;;;;;;;;5036147;28;20041;-78
2022/10/06 12:30:20;;;;;;;6.80;1.50;;;;;;;;;;5032908;28;20049;-78
2022/10/06 12:33:12;;;;;;;6.68;1.23;;;;;;;;;;5035325;28;20162;-78
2022/10/06 12:35:38;;;;;;;9.95;1.35;;;;;;;;;;5032111;28;20052;-77
2022/10/06 12:38:25;;;;;;;4.13;1.23;;;;;;;;;;5038515;28;20084;-79
2022/10/06 12:40:54;;;;;;;6.35;1.40;;;;;;;;;;5040448;28;20126;-78
2022/10/06 12:43:21;;;;;;;5.13;1.50;;;;;;;;;;5040365;28;20128;-77
2022/10/06 12:46:09;;;;;;;6.97;1.40;;;;;;;;;;5040060;28;20045;-78
2022/10/06 12:48:51;;;;;;;10.63;1.63;;;;;;;;;;5038668;28;20064;-77
2022/10/06 12:51:29;;;;;;;5.35;1.23;;;;;;;;;;5039352;28;20049;-79
2022/10/06 12:53:58;;;;;;;5.20;1.60;;;;;;;;;;5037560;28;20077;-78
2022/10/06 12:56:32;;;;;;;8.40;1.25;;;;;;;;;;5035067;28;20050;-79
2022/10/06 12:59:19;;;;;;;7.63;1.40;;;;;;;;;;5033520;28;20379;-77
2022/10/06 13:01:48;;;;;;;6.05;1.40;;;;;;;;;;5015626;28;20140;-78
2022/10/06 13:04:50;;;;;;;9.50;1.30;;;;;;;;;;5032532;28;20099;-79
2022/10/06 13:07:29;;;;;;;10.13;1.60;;;;;;;;;;5033186;28;20577;-78
2022/10/06 13:10:14;;;;;;;5.82;1.30;;;;;;;;;;5034166;28;20092;-78
2022/10/06 13:12:41;;;;;;;6.00;1.10;;;;;;;;;;5032244;28;20045;-78
2022/10/06 13:15:27;;;;;;;5.88;1.17;;;;;;;;;;5032615;28;20049;-79
2022/10/06 13:17:57;;;;;;;7.60;1.23;;;;;;;;;;5020710;28;20449;-78
2022/10/06 13:20:35;;;;;;;4.63;1.30;;;;;;;;;;5024167;28;20510;-78
2022/10/06 13:23:03;;;;;;;4.40;1.08;;;;;;;;;;5015872;28;20132;-78
2022/10/06 13:25:41;;;;;;;4.75;1.20;;;;;;;;;;5012966;28;20050;-77
2022/10/06 13:28:17;;;;;;;5.93;1.20;;;;;;;;;;5005045;28;20136;-78
2022/10/06 13:30:48;;;;;;;6.07;1.38;;;;;;;;;;5021268;28;20042;-80
2022/10/06 13:33:17;;;;;;;5.22;1.30;;;;;;;;;;5021151;28;20045;-81
2022/10/06 13:35:43;;;;;;;8.52;1.42;;;;;;;;;;5019269;28;20053;-82
2022/10/06 13:38:10;;;;;;;6.28;1.13;;;;;;;;;;5002279;28;20060;-79
2022/10/06 13:40:37;;;;;;;5.00;1.13;;;;;;;;;;5020846;28;20052;-79
2022/10/06 13:43:14;;;;;;;5.53;1.17;;;;;;;;;;5021586;28;20042;-80
2022/10/06 13:45:41;;;;;;;6.68;1.30;;;;;;;;;;5024614;28;20041;-78
2022/10/06 13:48:14;;;;;;;8.32;1.50;;;;;;;;;;5022475;28;20108;-79
2022/10/06 13:50:44;;;;;;;7.55;1.38;;;;;;;;;;5023104;28;20450;-78
2022/10/06 13:53:22;;;;;;;6.95;1.00;;;;;;;;;;5026850;28;20132;-79
2022/10/06 13:55:49;;;;;;;6.85;1.42;;;;;;;;;;5034281;28;20049;-78
2022/10/06 13:58:17;;;;;;;5.65;1.20;;;;;;;;;;5038739;28;20045;-80
2022/10/06 14:00:46;;;;;;;5.63;1.35;;;;;;;;;;5052960;28;20485;-77
2022/10/06 14:03:21;;;;;;;4.07;0.98;;;;;;;;;;5052591;28;20152;-77
2022/10/06 14:05:48;;;;;;;9.13;1.27;;;;;;;;;;5054087;28;20041;-79
2022/10/06 14:08:23;;;;;;;6.13;1.40;;;;;;;;;;5052868;28;20045;-82
2022/10/06 14:10:51;;;;;;;6.82;1.00;;;;;;;;;;5054221;28;20052;-80
2022/10/06 14:13:19;;;;;;;4.97;1.17;;;;;;;;;;5033997;28;20059;-81
2022/10/06 14:15:48;;;;;;;5.82;1.10;;;;;;;;;;5053980;28;20380;-80
2022/10/06 14:18:19;;;;;;;9.43;1.67;;;;;;;;;;5052453;28;20052;-80
2022/10/06 14:20:47;;;;;;;7.90;1.25;;;;;;;;;;5052915;28;20052;-80
2022/10/06 14:23:31;;;;;;;10.38;1.15;;;;;;;;;;5053444;28;20083;-81
2022/10/06 14:25:57;;;;;;;4.70;0.88;;;;;;;;;;5053328;28;20560;-79
2022/10/06 14:28:24;;;;;;;5.38;1.40;;;;;;;;;;5052033;28;20080;-81
2022/10/06 14:30:50;;;;;;;9.75;1.35;;;;;;;;;;5054159;28;20080;-81
2022/10/06 14:33:17;;;;;;;4.00;1.10;;;;;;;;;;5053044;28;20143;-80
2022/10/06 14:35:44;;;;;;;6.30;0.93;;;;;;;;;;5041313;28;20037;-81
2022/10/06 14:38:11;;;;;;;12.23;1.08;;;;;;;;;;5022470;28;20061;-81
2022/10/06 14:40:41;;;;;;;4.75;1.10;;;;;;;;;;5021255;28;20046;-81
2022/10/06 14:43:10;;;;;;;7.40;0.93;;;;;;;;;;5025780;28;20049;-80
2022/10/06 14:45:40;;;;;;;4.78;1.20;;;;;;;;;;5020261;28;20482;-80
2022/10/06 14:48:09;;;;;;;6.72;1.08;;;;;;;;;;5005504;28;20493;-80
2022/10/06 14:50:35;;;;;;;9.50;1.20;;;;;;;;;;5020656;28;20053;-81
2022/10/06 14:53:02;;;;;;;8.95;0.90;;;;;;;;;;5020423;28;20049;-80
2022/10/06 14:55:29;;;;;;;4.07;1.00;;;;;;;;;;5036983;28;20145;-81
2022/10/06 14:57:56;;;;;;;11.95;1.33;;;;;;;;;;5045247;28;20029;-81
2022/10/06 15:00:27;;;;;;;5.57;0.90;;;;;;;;;;5021115;28;20458;-81
2022/10/06 15:02:55;;;;;;;6.90;1.40;;;;;;;;;;5015772;28;20042;-80
2022/10/06 15:05:23;;;;;;;9.07;1.05;;;;;;;;;;5032961;28;20046;-80
2022/10/06 15:08:08;;;;;;;3.80;0.82;;;;;;;;;;5032616;28;20622;-81
2022/10/06 15:10:37;;;;;;;8.52;1.15;;;;;;;;;;5014962;28;20064;-80
2022/10/06 15:13:05;;;;;;;8.05;1.10;;;;;;;;;;5031558;28;20057;-80
2022/10/06 15:15:32;;;;;;;5.05;1.13;;;;;;;;;;5015284;28;20140;-80